createdAt,value
2022-09-30T00:01:14.994Z,7.51
2022-09-30T00:03:41.563Z,7.49
2022-09-30T00:06:09.009Z,7.46
2022-09-30T00:08:37.155Z,7.45
2022-09-30T00:11:13.607Z,7.43
2022-09-30T00:13:40.580Z,7.44
2022-09-30T00:16:10.375Z,7.43
2022-09-30T00:18:38.144Z,7.41
2022-09-30T00:21:08.314Z,7.41
2022-09-30T00:23:37.995Z,7.38
2022-09-30T00:26:07.884Z,7.34
2022-09-30T00:28:34.743Z,7.33
2022-09-30T00:31:04.453Z,7.31
2022-09-30T00:33:31.560Z,7.30
2022-09-30T00:35:58.096Z,7.29
2022-09-30T00:38:24.817Z,7.25
2022-09-30T00:40:51.720Z,7.21
2022-09-30T00:43:38.875Z,7.19
2022-09-30T00:46:06.337Z,7.19
2022-09-30T00:48:39.728Z,7.20
2022-09-30T00:51:08.051Z,7.19
2022-09-30T00:54:00.414Z,7.16
2022-09-30T00:56:29.606Z,7.08
2022-09-30T00:59:02.252Z,7.10
2022-09-30T01:01:28.823Z,7.13
2022-09-30T01:04:03.468Z,7.12
2022-09-30T01:06:30.218Z,7.11
2022-09-30T01:08:58.653Z,7.09
2022-09-30T01:11:28.272Z,7.06
2022-09-30T01:13:58.970Z,7.04
2022-09-30T01:16:46.901Z,6.99
2022-09-30T01:19:36.637Z,6.96
2022-09-30T01:22:19.273Z,6.88
2022-09-30T01:25:17.838Z,6.85
2022-09-30T01:27:50.244Z,6.83
2022-09-30T01:30:26.583Z,6.83
2022-09-30T01:33:24.130Z,6.82
2022-09-30T01:36:25.975Z,6.85
2022-09-30T01:39:13.956Z,6.89
2022-09-30T01:42:04.483Z,6.94
2022-09-30T01:44:45.944Z,6.99
2022-09-30T01:47:29.515Z,6.98
2022-09-30T01:50:10.181Z,6.97
2022-09-30T01:52:44.808Z,6.98
2022-09-30T01:55:25.535Z,6.97
2022-09-30T01:58:14.434Z,6.99
2022-09-30T02:00:44.533Z,6.99
2022-09-30T02:03:27.794Z,6.97
2022-09-30T02:06:04.244Z,6.97
2022-09-30T02:08:51.254Z,6.95
2022-09-30T02:11:25.862Z,6.97
2022-09-30T02:13:55.370Z,6.96
2022-09-30T02:16:49.536Z,6.94
2022-09-30T02:19:23.281Z,7.00
2022-09-30T02:22:00.460Z,7.02
2022-09-30T02:24:32.159Z,7.08
2022-09-30T02:27:01.940Z,7.10
2022-09-30T02:29:34.883Z,7.15
2022-09-30T02:32:07.904Z,7.17
2022-09-30T02:34:43.443Z,7.22
2022-09-30T02:37:32.420Z,7.25
2022-09-30T02:40:35.876Z,7.25
2022-09-30T02:43:04.744Z,7.29
2022-09-30T02:45:43.128Z,7.31
2022-09-30T02:48:35.826Z,7.28
2022-09-30T02:51:10.316Z,7.31
2022-09-30T02:53:46.178Z,7.31
2022-09-30T02:56:24.261Z,7.32
2022-09-30T02:58:52.912Z,7.27
2022-09-30T03:01:20.193Z,7.24
2022-09-30T03:04:02.641Z,7.20
2022-09-30T03:06:29.459Z,7.19
2022-09-30T03:08:56.179Z,7.16
2022-09-30T03:11:25.109Z,7.16
2022-09-30T03:14:29.128Z,7.14
2022-09-30T03:17:20.453Z,7.16
2022-09-30T03:19:56.037Z,7.17
2022-09-30T03:22:25.364Z,7.16
2022-09-30T03:25:05.859Z,7.11
2022-09-30T03:27:37.367Z,7.07
2022-09-30T03:30:08.107Z,7.02
2022-09-30T03:33:04.462Z,6.98
2022-09-30T03:36:01.997Z,6.91
2022-09-30T03:38:39.941Z,6.88
2022-09-30T03:41:18.963Z,6.87
2022-09-30T03:43:45.432Z,6.81
2022-09-30T03:46:21.482Z,6.75
2022-09-30T03:48:51.691Z,6.74
2022-09-30T03:51:18.546Z,6.73
2022-09-30T03:53:46.676Z,6.73
2022-09-30T03:56:13.993Z,6.75
2022-09-30T03:58:44.337Z,6.79
2022-09-30T04:01:21.594Z,6.83
2022-09-30T04:03:52.993Z,6.89
2022-09-30T04:06:22.575Z,6.94
2022-09-30T04:08:50.354Z,6.95
2022-09-30T04:11:17.923Z,6.96
2022-09-30T04:13:44.461Z,6.93
2022-09-30T04:16:11.067Z,6.91
2022-09-30T04:18:39.104Z,6.89
2022-09-30T04:21:10.655Z,6.87
2022-09-30T04:23:38.733Z,6.87
2022-09-30T04:26:12.680Z,6.86
2022-09-30T04:28:40.092Z,6.83
2022-09-30T04:31:07.492Z,6.80
2022-09-30T04:33:34.379Z,6.80
2022-09-30T04:36:01.675Z,6.81
2022-09-30T04:38:29.179Z,6.82
2022-09-30T04:40:56.105Z,6.83
2022-09-30T04:43:23.614Z,6.82
2022-09-30T04:45:52.645Z,6.87
2022-09-30T04:48:19.706Z,6.89
2022-09-30T04:50:46.230Z,6.91
2022-09-30T04:53:14.826Z,6.94
2022-09-30T04:55:42.691Z,7.02
2022-09-30T04:58:09.459Z,7.50
2022-09-30T05:00:36.730Z,8.23
2022-09-30T05:03:03.634Z,8.91
2022-09-30T05:05:30.571Z,9.54
2022-09-30T05:08:01.694Z,10.09
2022-09-30T05:10:28.326Z,10.61
2022-09-30T05:12:55.067Z,10.93
2022-09-30T05:15:21.558Z,11.10
2022-09-30T05:17:51.601Z,11.16
2022-09-30T05:20:21.086Z,11.20
2022-09-30T05:22:48.324Z,11.25
2022-09-30T05:25:15.233Z,11.21
2022-09-30T05:27:41.781Z,11.21
2022-09-30T05:30:09.216Z,11.28
2022-09-30T05:32:35.784Z,11.47
2022-09-30T05:35:03.585Z,11.56
2022-09-30T05:37:30.441Z,11.60
2022-09-30T05:39:57.314Z,11.69
2022-09-30T05:42:23.876Z,11.64
2022-09-30T05:44:50.415Z,11.61
2022-09-30T05:47:17.324Z,11.68
2022-09-30T05:49:44.799Z,11.69
2022-09-30T05:52:13.497Z,11.68
2022-09-30T05:54:40.302Z,11.73
2022-09-30T05:57:08.030Z,11.77
2022-09-30T05:59:34.588Z,11.68
2022-09-30T06:02:01.543Z,11.68
2022-09-30T06:04:28.179Z,11.68
2022-09-30T06:06:54.696Z,11.74
2022-09-30T06:09:21.325Z,11.79
2022-09-30T06:11:48.056Z,11.65
2022-09-30T06:14:14.653Z,11.61
2022-09-30T06:16:41.268Z,11.53
2022-09-30T06:19:08.105Z,11.17
2022-09-30T06:21:34.616Z,10.70
2022-09-30T06:24:01.340Z,10.40
2022-09-30T06:26:27.893Z,10.31
2022-09-30T06:28:54.823Z,10.14
2022-09-30T06:31:21.576Z,9.81
2022-09-30T06:33:48.228Z,9.49
2022-09-30T06:36:15.212Z,9.16
2022-09-30T06:38:41.791Z,8.89
2022-09-30T06:41:08.870Z,8.68
2022-09-30T06:43:51.258Z,8.53
2022-09-30T06:46:26.323Z,8.45
2022-09-30T06:49:10.203Z,8.40
2022-09-30T06:51:39.838Z,8.36
2022-09-30T06:54:06.377Z,8.35
2022-09-30T06:56:32.872Z,8.24
2022-09-30T06:58:59.366Z,8.22
2022-09-30T07:01:27.934Z,8.25
2022-09-30T07:03:58.180Z,8.31
2022-09-30T07:06:28.759Z,8.35
2022-09-30T07:08:56.901Z,8.38
2022-09-30T07:11:24.799Z,8.41
2022-09-30T07:13:51.377Z,8.45
2022-09-30T07:16:19.779Z,8.48
2022-09-30T07:18:46.599Z,8.52
2022-09-30T07:21:16.073Z,8.50
2022-09-30T07:23:47.567Z,8.48
2022-09-30T07:26:19.441Z,8.58
2022-09-30T07:28:46.061Z,8.81
2022-09-30T07:31:34.699Z,8.79
2022-09-30T07:34:04.174Z,8.67
2022-09-30T07:36:33.621Z,8.54
2022-09-30T07:39:06.108Z,8.41
2022-09-30T07:41:36.525Z,8.36
2022-09-30T07:44:06.375Z,8.39
2022-09-30T07:46:36.275Z,8.43
2022-09-30T07:49:08.916Z,8.48
2022-09-30T07:51:40.664Z,8.52
2022-09-30T07:54:14.264Z,8.56
2022-09-30T07:57:08.153Z,8.63
2022-09-30T07:59:29.868Z,8.68
2022-09-30T08:01:56.784Z,8.72
2022-09-30T08:04:25.434Z,8.86
2022-09-30T08:06:55.913Z,9.06
2022-09-30T08:09:24.501Z,9.31
2022-09-30T08:11:51.261Z,9.46
2022-09-30T08:14:21.907Z,9.60
2022-09-30T08:16:49.170Z,9.82
2022-09-30T08:19:21.154Z,9.82
2022-09-30T08:21:48.338Z,9.80
2022-09-30T08:24:15.341Z,10.19
2022-09-30T08:26:42.752Z,10.52
2022-09-30T08:29:14.115Z,10.66
2022-09-30T08:31:43.678Z,10.45
2022-09-30T08:34:11.593Z,10.25
2022-09-30T08:36:38.271Z,10.15
2022-09-30T08:39:05.989Z,10.41
2022-09-30T08:42:08.750Z,10.61
2022-09-30T08:44:49.072Z,10.77
2022-09-30T08:47:41.942Z,11.06
2022-09-30T08:50:23.742Z,11.22
2022-09-30T08:52:54.596Z,11.39
2022-09-30T08:55:24.860Z,11.31
2022-09-30T08:57:53.624Z,11.56
2022-09-30T09:00:21.094Z,11.61
2022-09-30T09:02:58.843Z,11.37
2022-09-30T09:05:49.992Z,11.02
2022-09-30T09:08:34.881Z,10.76
2022-09-30T09:11:21.132Z,10.62
2022-09-30T09:13:57.682Z,10.67
2022-09-30T09:16:50.565Z,10.66
2022-09-30T09:19:25.095Z,10.66
2022-09-30T09:21:57.183Z,10.62
2022-09-30T09:24:30.313Z,10.68
2022-09-30T09:26:59.038Z,10.76
2022-09-30T09:29:40.815Z,10.76
2022-09-30T09:32:17.478Z,10.79
2022-09-30T09:34:46.192Z,10.81
2022-09-30T09:37:12.651Z,10.83
2022-09-30T09:39:54.483Z,10.86
2022-09-30T09:42:47.536Z,10.80
2022-09-30T09:45:26.276Z,10.74
2022-09-30T09:47:57.992Z,10.89
2022-09-30T09:50:56.995Z,11.05
2022-09-30T09:53:48.025Z,11.24
2022-09-30T09:56:22.351Z,11.29
2022-09-30T09:59:24.738Z,11.31
2022-09-30T10:01:52.872Z,11.41
2022-09-30T10:04:23.670Z,11.65
2022-09-30T10:07:12.549Z,11.81
2022-09-30T10:09:41.386Z,11.86
2022-09-30T10:12:07.884Z,11.98
2022-09-30T10:14:45.941Z,12.10
2022-09-30T10:17:21.042Z,12.17
2022-09-30T10:19:51.905Z,12.33
2022-09-30T10:22:27.670Z,12.44
2022-09-30T10:25:10.972Z,12.51
2022-09-30T10:27:37.573Z,12.60
2022-09-30T10:30:04.540Z,12.64
2022-09-30T10:32:32.611Z,12.62
2022-09-30T10:35:22.707Z,12.61
2022-09-30T10:37:58.035Z,12.64
2022-09-30T10:40:28.471Z,12.67
2022-09-30T10:42:56.105Z,12.65
2022-09-30T10:46:01.496Z,12.61
2022-09-30T10:48:38.028Z,12.63
2022-09-30T10:51:07.123Z,12.68
2022-09-30T10:53:35.321Z,12.68
2022-09-30T10:56:05.293Z,12.64
2022-09-30T10:58:51.643Z,12.76
2022-09-30T11:01:30.589Z,12.96
2022-09-30T11:04:31.162Z,13.08
2022-09-30T11:07:26.698Z,13.23
2022-09-30T11:10:23.087Z,13.30
2022-09-30T11:12:49.945Z,13.38
2022-09-30T11:15:24.414Z,13.45
2022-09-30T11:17:54.967Z,13.50
2022-09-30T11:20:36.222Z,13.64
2022-09-30T11:23:24.642Z,13.88
2022-09-30T11:26:07.297Z,14.09
2022-09-30T11:29:05.181Z,14.25
2022-09-30T11:31:49.206Z,14.37
2022-09-30T11:34:27.788Z,14.44
2022-09-30T11:37:25.340Z,14.60
2022-09-30T11:40:13.801Z,14.86
2022-09-30T11:42:59.715Z,15.19
2022-09-30T11:45:46.036Z,15.40
2022-09-30T11:48:21.769Z,15.61
2022-09-30T11:51:11.135Z,15.98
2022-09-30T11:53:45.447Z,16.14
2022-09-30T11:56:46.248Z,16.17
2022-09-30T11:59:24.688Z,16.18
2022-09-30T12:01:56.861Z,16.36
2022-09-30T12:04:38.083Z,16.56
2022-09-30T12:07:14.886Z,16.66
2022-09-30T12:09:47.137Z,16.63
2022-09-30T12:12:17.045Z,16.58
2022-09-30T12:15:15.515Z,16.56
2022-09-30T12:17:48.513Z,16.60
2022-09-30T12:20:18.706Z,16.80
2022-09-30T12:22:47.687Z,17.01
2022-09-30T12:25:22.966Z,17.10
2022-09-30T12:28:23.781Z,17.21
2022-09-30T12:31:02.244Z,17.29
2022-09-30T12:33:59.133Z,17.29
2022-09-30T12:37:13.824Z,17.30
2022-09-30T12:39:55.261Z,17.32
2022-09-30T12:42:40.047Z,17.31
2022-09-30T12:45:18.546Z,17.45
2022-09-30T12:47:48.476Z,17.52
2022-09-30T12:50:19.406Z,17.45
2022-09-30T12:52:46.501Z,17.48
2022-09-30T12:55:25.423Z,17.46
2022-09-30T12:57:53.281Z,17.48
2022-09-30T13:00:23.174Z,17.61
2022-09-30T13:02:56.682Z,17.74
2022-09-30T13:05:32.535Z,17.81
2022-09-30T13:08:11.355Z,17.73
2022-09-30T13:10:37.814Z,17.86
2022-09-30T13:13:10.468Z,18.11
2022-09-30T13:15:37.057Z,18.29
2022-09-30T13:18:28.078Z,18.39
2022-09-30T13:21:08.438Z,18.47
2022-09-30T13:23:40.999Z,18.61
2022-09-30T13:26:27.993Z,18.86
2022-09-30T13:29:14.651Z,19.15
2022-09-30T13:31:50.490Z,19.38
2022-09-30T13:34:31.214Z,19.75
2022-09-30T13:37:02.199Z,20.19
2022-09-30T13:39:47.800Z,20.64
2022-09-30T13:42:14.334Z,21.13
2022-09-30T13:44:57.633Z,21.49
2022-09-30T13:47:30.390Z,21.62
2022-09-30T13:50:06.297Z,21.82
2022-09-30T13:52:35.494Z,22.17
2022-09-30T13:55:25.843Z,22.60
2022-09-30T13:58:28.197Z,23.01
2022-09-30T14:01:17.138Z,22.88
2022-09-30T14:04:23.305Z,23.33
2022-09-30T14:06:55.713Z,23.65
2022-09-30T14:09:34.527Z,23.42
2022-09-30T14:12:04.213Z,23.37
2022-09-30T14:14:55.449Z,23.69
2022-09-30T14:17:50.141Z,23.90
2022-09-30T14:20:54.344Z,24.04
2022-09-30T14:23:21.622Z,24.25
2022-09-30T14:26:10.937Z,24.06
2022-09-30T14:29:03.866Z,23.89
2022-09-30T14:31:33.999Z,23.98
2022-09-30T14:34:00.723Z,24.24
2022-09-30T14:36:27.455Z,24.45
2022-09-30T14:38:59.564Z,24.59
2022-09-30T14:41:28.283Z,24.60
2022-09-30T14:43:59.356Z,24.55
2022-09-30T14:46:38.903Z,24.62
2022-09-30T14:49:09.542Z,24.75
2022-09-30T14:51:43.390Z,25.00
2022-09-30T14:54:26.619Z,25.32
2022-09-30T14:56:56.034Z,25.65
2022-09-30T14:59:28.059Z,25.79
2022-09-30T15:02:00.771Z,25.90
2022-09-30T15:04:39.923Z,25.94
2022-09-30T15:07:11.375Z,26.06
2022-09-30T15:09:46.509Z,26.24
2022-09-30T15:12:14.280Z,26.39
2022-09-30T15:14:49.987Z,26.37
2022-09-30T15:17:21.993Z,26.31
2022-09-30T15:19:50.402Z,26.19
2022-09-30T15:22:18.988Z,25.92
2022-09-30T15:24:47.505Z,25.31
2022-09-30T15:27:35.414Z,24.71
2022-09-30T15:30:22.474Z,24.63
2022-09-30T15:32:56.738Z,24.74
2022-09-30T15:35:24.040Z,25.11
2022-09-30T15:37:52.313Z,25.30
2022-09-30T15:40:43.065Z,25.32
2022-09-30T15:43:15.559Z,24.94
2022-09-30T15:45:50.504Z,24.93
2022-09-30T15:48:46.111Z,25.13
2022-09-30T15:51:37.427Z,25.22
2022-09-30T15:54:32.048Z,25.34
2022-09-30T15:57:00.919Z,25.45
2022-09-30T15:59:58.461Z,25.38
2022-09-30T16:02:25.391Z,25.23
2022-09-30T16:04:53.171Z,24.91
2022-09-30T16:07:26.407Z,24.40
2022-09-30T16:09:53.218Z,23.60
2022-09-30T16:12:24.455Z,22.73
2022-09-30T16:14:52.810Z,21.77
2022-09-30T16:17:24.557Z,20.97
2022-09-30T16:19:58.001Z,20.18
2022-09-30T16:22:59.302Z,19.51
2022-09-30T16:25:30.659Z,18.94
2022-09-30T16:28:14.346Z,18.49
2022-09-30T16:30:47.597Z,18.11
2022-09-30T16:33:15.761Z,17.74
2022-09-30T16:35:44.358Z,17.42
2022-09-30T16:38:13.918Z,17.09
2022-09-30T16:40:40.848Z,16.75
2022-09-30T16:43:11.752Z,16.45
2022-09-30T16:45:40.385Z,16.19
2022-09-30T16:48:15.346Z,15.96
2022-09-30T16:50:45.689Z,15.80
2022-09-30T16:53:12.267Z,15.60
2022-09-30T16:55:38.767Z,15.42
2022-09-30T16:58:05.462Z,15.26
2022-09-30T17:00:32.495Z,15.12
2022-09-30T17:02:59.223Z,14.97
2022-09-30T17:05:26.872Z,14.80
2022-09-30T17:07:59.343Z,14.65
2022-09-30T17:10:31.038Z,14.54
2022-09-30T17:13:02.414Z,14.44
2022-09-30T17:15:31.495Z,14.34
2022-09-30T17:17:59.011Z,14.24
2022-09-30T17:20:26.646Z,14.14
2022-09-30T17:22:53.298Z,14.07
2022-09-30T17:25:19.973Z,14.02
2022-09-30T17:27:52.804Z,13.94
2022-09-30T17:30:20.030Z,13.85
2022-09-30T17:32:46.930Z,13.76
2022-09-30T17:35:13.768Z,13.67
2022-09-30T17:37:43.832Z,13.54
2022-09-30T17:40:31.163Z,13.42
2022-09-30T17:43:12.968Z,13.32
2022-09-30T17:45:46.121Z,13.24
2022-09-30T17:48:14.535Z,13.20
2022-09-30T17:50:44.275Z,13.22
2022-09-30T17:53:14.367Z,13.22
2022-09-30T17:55:41.688Z,13.19
2022-09-30T17:58:09.334Z,13.15
2022-09-30T18:00:36.517Z,13.10
2022-09-30T18:03:03.967Z,13.05
2022-09-30T18:05:33.060Z,12.99
2022-09-30T18:07:59.937Z,12.91
2022-09-30T18:10:27.670Z,12.83
2022-09-30T18:12:55.200Z,12.75
2022-09-30T18:15:23.329Z,12.63
2022-09-30T18:17:50.237Z,12.55
2022-09-30T18:20:17.860Z,12.46
2022-09-30T18:22:46.222Z,12.38
2022-09-30T18:25:22.736Z,12.31
2022-09-30T18:27:56.462Z,12.23
2022-09-30T18:30:24.215Z,12.17
2022-09-30T18:32:52.785Z,12.14
2022-09-30T18:35:21.919Z,12.09
2022-09-30T18:37:52.283Z,12.06
2022-09-30T18:40:25.861Z,12.00
2022-09-30T18:42:58.368Z,11.96
2022-09-30T18:45:35.777Z,11.94
2022-09-30T18:48:02.534Z,11.91
2022-09-30T18:50:30.407Z,11.85
2022-09-30T18:52:57.945Z,11.81
2022-09-30T18:55:25.170Z,11.77
2022-09-30T18:57:56.142Z,11.72
2022-09-30T19:00:22.925Z,11.70
2022-09-30T19:02:52.095Z,11.67
2022-09-30T19:05:18.891Z,11.67
2022-09-30T19:07:45.398Z,11.61
2022-09-30T19:10:13.293Z,11.56
2022-09-30T19:12:40.634Z,11.50
2022-09-30T19:15:12.084Z,11.44
2022-09-30T19:17:38.670Z,11.40
2022-09-30T19:20:06.687Z,11.36
2022-09-30T19:22:37.273Z,11.32
2022-09-30T19:25:11.754Z,11.28
2022-09-30T19:27:40.933Z,11.26
2022-09-30T19:30:10.271Z,11.25
2022-09-30T19:32:37.138Z,11.22
2022-09-30T19:35:06.798Z,11.20
2022-09-30T19:37:34.603Z,11.14
2022-09-30T19:40:10.743Z,11.09
2022-09-30T19:42:43.028Z,11.02
2022-09-30T19:45:09.569Z,10.99
2022-09-30T19:47:38.009Z,10.97
2022-09-30T19:50:05.615Z,10.93
2022-09-30T19:52:34.423Z,10.88
2022-09-30T19:55:13.034Z,10.80
2022-09-30T19:57:42.694Z,10.77
2022-09-30T20:00:12.654Z,10.74
2022-09-30T20:02:39.306Z,10.73
2022-09-30T20:05:06.516Z,10.72
2022-09-30T20:07:33.076Z,10.78
2022-09-30T20:10:01.008Z,10.90
2022-09-30T20:12:28.966Z,10.92
2022-09-30T20:15:14.371Z,10.97
2022-09-30T20:17:40.892Z,10.98
2022-09-30T20:20:26.382Z,10.95
2022-09-30T20:22:53.320Z,10.92
2022-09-30T20:25:20.367Z,10.86
2022-09-30T20:27:51.876Z,10.77
2022-09-30T20:30:18.878Z,10.68
2022-09-30T20:32:45.398Z,10.64
2022-09-30T20:35:12.041Z,10.63
2022-09-30T20:37:40.875Z,10.67
2022-09-30T20:40:09.454Z,10.68
2022-09-30T20:42:38.473Z,10.67
2022-09-30T20:45:10.164Z,10.68
2022-09-30T20:47:37.794Z,10.70
2022-09-30T20:50:06.081Z,10.75
2022-09-30T20:52:32.627Z,10.76
2022-09-30T20:55:00.447Z,10.76
2022-09-30T20:57:31.711Z,10.75
2022-09-30T20:59:59.971Z,10.72
2022-09-30T21:02:27.992Z,10.71
2022-09-30T21:04:57.772Z,10.69
2022-09-30T21:07:25.338Z,10.70
2022-09-30T21:09:52.564Z,10.69
2022-09-30T21:12:19.370Z,10.68
2022-09-30T21:14:45.932Z,10.67
2022-09-30T21:17:12.510Z,10.70
2022-09-30T21:19:39.218Z,10.72
2022-09-30T21:22:05.748Z,10.71
2022-09-30T21:24:32.278Z,10.66
2022-09-30T21:26:59.064Z,10.63
2022-09-30T21:29:25.640Z,10.66
2022-09-30T21:31:52.189Z,10.66
2022-09-30T21:34:18.896Z,10.63
2022-09-30T21:36:46.358Z,10.62
2022-09-30T21:39:12.933Z,10.68
2022-09-30T21:41:40.840Z,10.72
2022-09-30T21:44:07.553Z,10.78
2022-09-30T21:46:35.690Z,10.82
2022-09-30T21:49:19.970Z,10.84
2022-09-30T21:51:47.058Z,10.86
2022-09-30T21:54:14.581Z,10.85
2022-09-30T21:56:42.912Z,10.97
2022-09-30T21:59:10.440Z,11.00
2022-09-30T22:01:37.513Z,11.01
2022-09-30T22:04:04.866Z,10.99
2022-09-30T22:06:31.602Z,10.95
2022-09-30T22:09:01.238Z,10.95
2022-09-30T22:11:29.195Z,10.93
2022-09-30T22:13:57.694Z,11.02
2022-09-30T22:16:27.355Z,11.04
2022-09-30T22:18:55.215Z,11.04
2022-09-30T22:21:22.063Z,11.08
2022-09-30T22:23:49.553Z,11.12
2022-09-30T22:26:19.167Z,11.17
2022-09-30T22:28:46.850Z,11.20
2022-09-30T22:31:21.505Z,11.20
2022-09-30T22:34:09.610Z,11.23
2022-09-30T22:36:54.983Z,11.32
2022-09-30T22:39:22.347Z,11.40
2022-09-30T22:41:50.303Z,11.43
2022-09-30T22:44:17.862Z,11.52
2022-09-30T22:46:44.892Z,11.61
2022-09-30T22:49:11.826Z,11.69
2022-09-30T22:51:38.966Z,11.77
2022-09-30T22:54:05.989Z,11.84
2022-09-30T22:56:32.550Z,11.85
2022-09-30T22:58:59.603Z,11.90
2022-09-30T23:01:29.261Z,11.97
2022-09-30T23:03:56.066Z,12.04
2022-09-30T23:06:24.372Z,12.14
2022-09-30T23:08:52.662Z,12.21
2022-09-30T23:11:19.411Z,12.28
2022-09-30T23:13:46.458Z,12.32
2022-09-30T23:16:14.196Z,12.37
2022-09-30T23:18:41.019Z,12.43
2022-09-30T23:21:10.657Z,12.49
2022-09-30T23:23:38.803Z,12.54
2022-09-30T23:26:06.812Z,12.58
2022-09-30T23:28:33.399Z,12.62
2022-09-30T23:31:09.372Z,12.65
2022-09-30T23:33:37.812Z,12.70
2022-09-30T23:36:06.356Z,12.75
2022-09-30T23:38:33.338Z,12.75
2022-09-30T23:41:00.268Z,12.79
2022-09-30T23:43:31.251Z,12.80
2022-09-30T23:46:01.747Z,12.79
2022-09-30T23:48:28.700Z,12.81
2022-09-30T23:50:55.338Z,12.82
2022-09-30T23:53:23.228Z,12.83
2022-09-30T23:56:13.038Z,12.78
2022-09-30T23:58:40.233Z,12.80
